Island Scout — WDC6588 — position and weather

sailwx.info

Track history (hours):
 
Tides and Currents Weather Stations Pressure Air Temp Water Temp Dewpoint Dewpoint Depression Visibility Wind Speed Wind Dir Waves Ship Positions

Island Scout

Owner: Island Tug and Barge, Seattle, WA. More information available from US FCC via Universal Licensing System and Coast Guard Vessel Documentation Center.

Last reported at 2018-Jun-03 07:44 UTC. Time now 2018-Jul-23 00:13 UTC.
Position N 47°34' W 122°22'.
Warning: this ship's position is 49 days out of date.

Type: Tug. MMSI: 367058210.

Date/timePositionNaut miles runAvg speedWind from/ knotsBaromVisibWave heightAir tempDewpointWater temp
2018-Jun-03 07:44N 47°34' W 122°22'0 0.0
2018-Jun-03 07:29N 47°34' W 122°22'0 0.0
2018-Jun-03 06:59N 47°34' W 122°22'0 0.0
2018-Jun-03 06:29N 47°34' W 122°22'0 0.0
2018-Jun-03 05:59N 47°34' W 122°22'0 0.0
2018-Jun-03 05:29N 47°34' W 122°22'0 0.0
2018-Jun-03 04:59N 47°34' W 122°22'0 0.0
2018-Jun-03 04:29N 47°34' W 122°22'0 0.0
2018-Jun-03 03:59N 47°34' W 122°22'0 0.0
2018-Jun-03 03:29N 47°34' W 122°22'0 0.0
2018-Jun-03 02:59N 47°34' W 122°22'1 1.8
2018-Jun-03 02:30N 47°34' W 122°21'0 0.8
2018-Jun-03 02:00N 47°33' W 122°21'0 0.2
2018-Jun-03 01:30N 47°33' W 122°21'2 4.8
2018-Jun-03 01:00N 47°35' W 122°22'1 2.9
2018-Jun-03 00:30N 47°36' W 122°24'4 8.5
2018-Jun-03 00:00N 47°40' W 122°28'4 8.4
2018-Jun-02 23:30N 47°44' W 122°27'4 8.1
2018-Jun-02 23:00N 47°48' W 122°28'4 8.3
2018-Jun-02 22:30N 47°52' W 122°29'4 8.1
2018-Jun-02 22:00N 47°56' W 122°31'4 7.9
2018-Jun-02 21:28N 47°58' W 122°36'4 7.4
2018-Jun-02 20:55N 48°02' W 122°39'22 6.3
2018-Jun-02 17:28N 48°23' W 122°46'510.9
2018-Jun-02 17:00N 48°28' W 122°45'510.7
2018-Jun-02 16:30N 48°33' W 122°45'5 9.8
2018-Jun-02 16:00N 48°38' W 122°44'5 8.9
2018-Jun-02 15:29N 48°43' W 122°45'4 8.3
2018-Jun-02 14:59N 48°46' W 122°50'4 8.4
2018-Jun-02 14:27N 48°48' W 122°56'4 8.2
2018-Jun-02 13:58N 48°51' W 123°01'4 7.6
2018-Jun-02 13:28N 48°53' W 123°05'4 8.5
2018-Jun-02 13:00N 48°55' W 123°10'4 7.6
2018-Jun-02 12:30N 48°57' W 123°15'4 7.5
2018-Jun-02 12:00N 48°60' W 123°19'4 7.5
2018-Jun-02 11:30N 49°04' W 123°21'3 5.5
2018-Jun-02 11:00N 49°06' W 123°19'4 7.7
2018-Jun-02 10:27N 49°08' W 123°13'4 8.3
2018-Jun-02 10:00N 49°07' W 123°07'4 8.4
2018-Jun-02 09:30N 49°09' W 123°02'1 1.5
2018-Jun-02 08:41N 49°09' W 123°00'0 0.2
2018-Jun-02 08:29N 49°09' W 123°00'0 0.0
2018-Jun-02 07:41N 49°09' W 123°00'0 0.0
2018-Jun-02 07:17N 49°09' W 123°00'0 0.0
2018-Jun-02 06:59N 49°09' W 123°00'0 0.0
2018-Jun-02 06:05N 49°09' W 123°00'0 0.0
2018-Jun-02 05:53N 49°09' W 123°00'0 0.0
2018-Jun-02 05:29N 49°09' W 123°00'0 0.0
2018-Jun-02 04:23N 49°09' W 123°00'0 0.0
2018-Jun-02 03:35N 49°09' W 123°00'0 0.0
2018-Jun-02 03:23N 49°09' W 123°00'0 0.0
2018-Jun-02 02:53N 49°09' W 123°00'0 0.0
2018-Jun-02 02:29N 49°09' W 123°00'0 0.0
2018-Jun-02 01:59N 49°09' W 123°00'0 0.0
2018-Jun-02 01:29N 49°09' W 123°00'0 0.0
2018-Jun-02 00:59N 49°09' W 123°00'0 0.0
2018-Jun-02 00:29N 49°09' W 123°00'0 0.0
2018-Jun-01 23:59N 49°09' W 123°00'0 0.0
2018-Jun-01 22:47N 49°09' W 123°00'0 0.0
2018-Jun-01 22:29N 49°09' W 123°00'0 0.0
2018-Jun-01 21:59N 49°09' W 123°00'0 0.0
2018-Jun-01 21:29N 49°09' W 123°00'0 0.0
2018-Jun-01 20:47N 49°09' W 123°00'0 0.0
2018-Jun-01 20:29N 49°09' W 123°00'0 0.0
2018-Jun-01 19:53N 49°09' W 123°00'0 0.0
2018-Jun-01 19:23N 49°09' W 123°00'0 0.0
2018-Jun-01 18:59N 49°09' W 123°00'0 0.0
2018-Jun-01 18:29N 49°09' W 123°00'0 0.0
2018-Jun-01 17:59N 49°09' W 123°00'0 0.0
2018-Jun-01 17:29N 49°09' W 123°00'0 0.0
2018-Jun-01 16:59N 49°09' W 123°00'0 0.0
2018-Jun-01 15:29N 49°09' W 123°00'0 0.0
2018-Jun-01 14:59N 49°09' W 123°00'0 0.0
2018-Jun-01 14:29N 49°09' W 123°00'0 0.0
2018-Jun-01 13:59N 49°09' W 123°00'0 0.0
2018-Jun-01 13:29N 49°09' W 123°00'0 0.0
2018-Jun-01 12:59N 49°09' W 123°00'0 0.0
2018-Jun-01 12:29N 49°09' W 123°00'0 0.0
2018-Jun-01 11:59N 49°09' W 123°00'0 0.0
2018-Jun-01 11:29N 49°09' W 123°00'0 0.0
2018-Jun-01 10:59N 49°09' W 123°00'0 0.0
2018-Jun-01 10:29N 49°09' W 123°00'0 0.0
2018-Jun-01 09:59N 49°09' W 123°00'0 0.0
2018-Jun-01 09:29N 49°09' W 123°00'0 0.0
2018-Jun-01 08:59N 49°09' W 123°00'0 0.0
2018-Jun-01 08:29N 49°09' W 123°00'0 0.0
2018-Jun-01 07:59N 49°09' W 123°00'0 0.0
2018-Jun-01 07:29N 49°09' W 123°00'0 0.0
2018-Jun-01 06:59N 49°09' W 123°00'0 0.0
2018-Jun-01 06:29N 49°09' W 123°00'0 0.0
2018-Jun-01 05:59N 49°09' W 123°00'0 0.0
2018-Jun-01 05:29N 49°09' W 123°00'0 0.0
2018-Jun-01 04:59N 49°09' W 123°00'0 0.0
2018-Jun-01 04:29N 49°09' W 123°00'0 0.0
2018-Jun-01 03:59N 49°09' W 123°00'0 0.0
2018-Jun-01 03:29N 49°09' W 123°00'0 0.0
2018-Jun-01 02:59N 49°09' W 123°00'0 0.0
2018-Jun-01 02:29N 49°09' W 123°00'0 0.0
2018-Jun-01 01:59N 49°09' W 123°00'0 0.0
2018-Jun-01 01:29N 49°09' W 123°00'0 0.0
2018-Jun-01 00:59N 49°09' W 123°00'0 0.0
2018-Jun-01 00:29N 49°09' W 123°00'0 0.0
2018-May-31 23:59N 49°09' W 123°00'0 0.0
2018-May-31 23:29N 49°09' W 123°00'0 0.0
2018-May-31 22:59N 49°09' W 123°00'0 0.0
2018-May-31 22:29N 49°09' W 123°00'0 0.0
2018-May-31 21:59N 49°09' W 123°00'0 0.0
2018-May-31 21:29N 49°09' W 123°00'0 0.0
2018-May-31 20:59N 49°09' W 123°00'0 0.0
2018-May-31 20:29N 49°09' W 123°00'0 0.0
2018-May-31 19:59N 49°09' W 123°00'0 0.0
2018-May-31 19:29N 49°09' W 123°00'0 0.0
2018-May-31 18:59N 49°09' W 123°00'0 0.0
2018-May-31 18:29N 49°09' W 123°00'0 0.0
2018-May-31 17:59N 49°09' W 123°00'0 0.0
2018-May-31 17:29N 49°09' W 123°00'0 0.0
2018-May-31 16:59N 49°09' W 123°00'0 0.0
2018-May-31 16:29N 49°09' W 123°00'0 0.0
2018-May-31 15:59N 49°09' W 123°00'0 0.0
2018-May-31 15:29N 49°09' W 123°00'0 0.0
2018-May-31 14:59N 49°09' W 123°00'0 0.0
2018-May-31 14:29N 49°09' W 123°00'0 0.0
2018-May-31 13:59N 49°09' W 123°00'0 0.0
2018-May-31 13:29N 49°09' W 123°00'0 0.0
2018-May-31 12:59N 49°09' W 123°00'0 0.0
2018-May-31 12:29N 49°09' W 123°00'0 0.0
2018-May-31 12:00N 49°09' W 123°00'0 0.0
2018-May-31 11:29N 49°09' W 123°00'0 0.0
2018-May-31 10:59N 49°09' W 123°00'0 0.0
2018-May-31 10:29N 49°09' W 123°00'0 0.0
2018-May-31 09:59N 49°09' W 123°00'0 0.0
2018-May-31 09:29N 49°09' W 123°00'0 0.0
2018-May-31 08:59N 49°09' W 123°00'0 0.0
2018-May-31 08:29N 49°09' W 123°00'0 0.0
2018-May-31 07:59N 49°09' W 123°00'0 0.0
2018-May-31 07:29N 49°09' W 123°00'0 0.0
2018-May-31 06:59N 49°09' W 123°00'0 0.0
2018-May-31 06:29N 49°09' W 123°00'0 0.0
2018-May-31 05:59N 49°09' W 123°00'0 0.0
2018-May-31 05:29N 49°09' W 123°00'0 0.0
2018-May-31 04:59N 49°09' W 123°00'0 0.0
2018-May-31 04:29N 49°09' W 123°00'0 0.0
2018-May-31 03:59N 49°09' W 123°00'0 0.0
2018-May-31 03:29N 49°09' W 123°00'0 0.0
2018-May-31 02:59N 49°09' W 123°00'0 0.0
2018-May-31 02:29N 49°09' W 123°00'0 0.0
2018-May-31 01:59N 49°09' W 123°00'0 0.0
2018-May-31 01:29N 49°09' W 123°00'0 0.0
2018-May-31 00:59N 49°09' W 123°00'0 0.0
2018-May-31 00:29N 49°09' W 123°00'0 0.0
2018-May-30 23:59N 49°09' W 123°00'0 0.0
2018-May-30 23:29N 49°09' W 123°00'0 0.0
2018-May-30 22:59N 49°09' W 123°00'0 0.0
2018-May-30 22:29N 49°09' W 123°00'0 0.0
2018-May-30 21:59N 49°09' W 123°00'0 0.0
2018-May-30 21:29N 49°09' W 123°00'0 0.0
2018-May-30 20:59N 49°09' W 123°00'0 0.0
2018-May-30 20:29N 49°09' W 123°00'0 0.0
2018-May-30 19:59N 49°09' W 123°00'0 0.0
2018-May-30 19:29N 49°09' W 123°00'0 0.0
2018-May-30 18:59N 49°09' W 123°00'0 0.0
2018-May-30 18:29N 49°09' W 123°00'0 0.0
2018-May-30 17:53N 49°09' W 123°00'0 0.0
2018-May-30 17:29N 49°09' W 123°00'0 0.0
2018-May-30 16:59N 49°09' W 123°00'0 0.0
2018-May-30 16:29N 49°09' W 123°00'0 0.0
2018-May-30 15:59N 49°09' W 123°00'0 0.0
2018-May-30 15:29N 49°09' W 123°00'0 0.0
2018-May-30 14:59N 49°09' W 123°00'0 0.0
2018-May-30 14:29N 49°09' W 123°00'0 0.0
2018-May-30 13:59N 49°09' W 123°00'0 0.0
2018-May-30 13:29N 49°09' W 123°00'0 0.0
2018-May-30 12:59N 49°09' W 123°00'0 0.0
2018-May-30 12:29N 49°09' W 123°00'0 0.0
2018-May-30 11:59N 49°09' W 123°00'0 0.0
2018-May-30 11:29N 49°09' W 123°00'0 0.0
2018-May-30 10:59N 49°09' W 123°00'0 0.0
2018-May-30 10:29N 49°09' W 123°00'0 0.0
2018-May-30 09:59N 49°09' W 123°00'0 0.0
2018-May-30 09:29N 49°09' W 123°00'0 0.0
2018-May-30 08:59N 49°09' W 123°00'0 0.0
2018-May-30 08:29N 49°09' W 123°00'0 0.0
2018-May-30 07:59N 49°09' W 123°00'0 0.0
2018-May-30 07:29N 49°09' W 123°00'0 0.0
2018-May-30 06:59N 49°09' W 123°00'0 0.0
2018-May-30 06:29N 49°09' W 123°00'0 0.0
2018-May-30 05:59N 49°09' W 123°00'0 0.0
2018-May-30 05:29N 49°09' W 123°00'0 0.0
2018-May-30 04:59N 49°09' W 123°00'0 0.0
2018-May-30 04:29N 49°09' W 123°00'0 0.0
2018-May-30 03:59N 49°09' W 123°00'0 0.0
2018-May-30 03:29N 49°09' W 123°00'0 0.0
2018-May-30 02:59N 49°09' W 123°00'0 0.0
2018-May-30 02:29N 49°09' W 123°00'0 0.0
2018-May-30 01:59N 49°09' W 123°00'0 0.0
2018-May-30 01:29N 49°09' W 123°00'0 0.0
2018-May-30 00:59N 49°09' W 123°00'0 0.0
2018-May-30 00:29N 49°09' W 123°00'0 0.0
2018-May-29 23:59N 49°09' W 123°00'0 0.0
2018-May-29 23:29N 49°09' W 123°00'0 0.0
2018-May-29 22:59N 49°09' W 123°00'0 0.0
2018-May-29 22:29N 49°09' W 123°00'0 0.0
2018-May-29 21:59N 49°09' W 123°00'0 0.0
2018-May-29 21:29N 49°09' W 123°00'0 0.1
2018-May-29 20:59N 49°09' W 123°00'0 0.0
2018-May-29 14:08N 49°09' W 123°00'0 0.0
2018-May-29 13:59N 49°09' W 123°00'0 0.0
2018-May-29 13:29N 49°09' W 123°00'0 0.0
2018-May-29 12:59N 49°09' W 123°00'0 0.0
2018-May-29 12:29N 49°09' W 123°00'0 0.0
2018-May-29 11:59N 49°09' W 123°00'0 0.0
2018-May-29 11:29N 49°09' W 123°00'0 0.0
2018-May-29 10:59N 49°09' W 123°00'0 0.0
2018-May-29 10:29N 49°09' W 123°00'0 0.0
2018-May-29 09:59N 49°09' W 123°00'0 0.0
2018-May-29 09:29N 49°09' W 123°00'0 0.0
2018-May-29 08:59N 49°09' W 123°00'0 0.0
2018-May-29 08:29N 49°09' W 123°00'0 0.0
2018-May-29 07:59N 49°09' W 123°00'0 0.0
2018-May-29 07:29N 49°09' W 123°00'0 0.0
2018-May-29 06:59N 49°09' W 123°00'0 0.0
2018-May-29 06:29N 49°09' W 123°00'0 0.0
2018-May-29 05:59N 49°09' W 123°00'0 0.0
2018-May-29 05:29N 49°09' W 123°00'0 0.0
2018-May-29 04:59N 49°09' W 123°00'0 0.0
2018-May-29 04:29N 49°09' W 123°00'0 0.0
2018-May-29 03:59N 49°09' W 123°00'0 0.0
2018-May-29 03:29N 49°09' W 123°00'0 0.0
2018-May-29 02:59N 49°09' W 123°00'0 0.0
2018-May-29 02:29N 49°09' W 123°00'0 0.0
2018-May-29 01:59N 49°09' W 123°00'0 0.0
2018-May-29 01:29N 49°09' W 123°00'0 0.0
2018-May-29 00:59N 49°09' W 123°00'0 0.0
2018-May-29 00:29N 49°09' W 123°00'0 0.0
2018-May-28 23:59N 49°09' W 123°00'0 0.0
2018-May-28 23:29N 49°09' W 123°00'0 0.0
2018-May-28 22:59N 49°09' W 123°00'0 0.0
2018-May-28 22:29N 49°09' W 123°00'0 0.0
2018-May-28 21:59N 49°09' W 123°00'0 0.0
2018-May-28 21:29N 49°09' W 123°00'0 0.0
2018-May-28 20:59N 49°09' W 123°00'0 0.0
2018-May-28 20:29N 49°09' W 123°00'0 0.0
2018-May-28 19:59N 49°09' W 123°00'0 0.0
2018-May-28 19:29N 49°09' W 123°00'0 0.0
2018-May-28 18:59N 49°09' W 123°00'0 0.0
2018-May-28 18:29N 49°09' W 123°00'0 0.0
2018-May-28 17:59N 49°09' W 123°00'0 0.0
2018-May-28 17:29N 49°09' W 123°00'0 0.0
2018-May-28 16:59N 49°09' W 123°00'0 0.0
2018-May-28 16:29N 49°09' W 123°00'0 0.0
2018-May-28 15:59N 49°09' W 123°00'0 0.0
2018-May-28 15:29N 49°09' W 123°00'0 0.0
2018-May-28 14:59N 49°09' W 123°00'0 0.0
2018-May-28 14:29N 49°09' W 123°00'0 0.0
2018-May-28 13:59N 49°09' W 123°00'0 0.0
2018-May-28 13:29N 49°09' W 123°00'0 0.0
2018-May-28 12:59N 49°09' W 123°00'0 0.0
2018-May-28 12:29N 49°09' W 123°00'0 0.0
2018-May-28 11:59N 49°09' W 123°00'0 0.0
2018-May-28 11:29N 49°09' W 123°00'0 0.0
2018-May-28 10:59N 49°09' W 123°00'0 0.0
2018-May-28 10:29N 49°09' W 123°00'0 0.0
2018-May-28 09:59N 49°09' W 123°00'0 0.0
2018-May-28 09:29N 49°09' W 123°00'0 0.0
2018-May-28 08:59N 49°09' W 123°00'0 0.0
2018-May-28 08:29N 49°09' W 123°00'0 0.0
2018-May-28 07:59N 49°09' W 123°00'0 0.0
2018-May-28 07:29N 49°09' W 123°00'0 0.0
2018-May-28 06:59N 49°09' W 123°00'0 0.0
2018-May-28 06:29N 49°09' W 123°00'0 0.0
2018-May-28 05:59N 49°09' W 123°00'0 0.0
2018-May-28 05:29N 49°09' W 123°00'0 0.0
2018-May-28 04:59N 49°09' W 123°00'0 0.0
2018-May-28 04:29N 49°09' W 123°00'0 0.0
2018-May-28 03:59N 49°09' W 123°00'0 0.0
2018-May-28 03:29N 49°09' W 123°00'0 0.0
2018-May-28 02:59N 49°09' W 123°00'0 0.0
2018-May-28 02:29N 49°09' W 123°00'0 0.0
2018-May-28 01:59N 49°09' W 123°00'0 0.0
2018-May-28 01:29N 49°09' W 123°00'0 0.0
2018-May-28 00:41N 49°09' W 123°00'0 0.0
2018-May-28 00:29N 49°09' W 123°00'0 0.0
2018-May-27 23:08N 49°09' W 123°00'0 0.0
2018-May-27 20:29N 49°09' W 123°00'0 0.0
2018-May-27 18:35N 49°09' W 123°00'0 0.0
2018-May-27 18:26N 49°09' W 123°00'0 0.0
2018-May-27 17:59N 49°09' W 123°00'0 0.0
2018-May-27 17:23N 49°09' W 123°00'0 0.0
2018-May-27 16:59N 49°09' W 123°00'0 0.0
2018-May-27 15:41N 49°09' W 123°00'0 0.0
2018-May-27 15:17N 49°09' W 123°00'0 0.0
2018-May-27 14:59N 49°09' W 123°00'0 0.0
2018-May-27 14:11N 49°09' W 123°00'0 0.0
2018-May-27 13:59N 49°09' W 123°00'0 0.0
2018-May-27 11:59N 49°09' W 123°00'0 0.0
2018-May-27 11:11N 49°09' W 123°00'0 0.0
2018-May-27 10:47N 49°09' W 123°00'0 0.0
2018-May-27 06:55N 49°09' W 123°00'0 0.0
2018-May-27 06:29N 49°09' W 123°00'0 0.0
2018-May-27 05:59N 49°09' W 123°00'0 0.0
2018-May-27 05:29N 49°09' W 123°00'0 0.0
2018-May-27 04:59N 49°09' W 123°00'0 0.0
2018-May-27 04:29N 49°09' W 123°00'0 0.0
2018-May-27 03:59N 49°09' W 123°00'0 0.0
2018-May-27 03:29N 49°09' W 123°00'0 0.0
2018-May-27 02:59N 49°09' W 123°00'0 0.0
2018-May-27 02:29N 49°09' W 123°00'0 0.0
2018-May-27 01:59N 49°09' W 123°00'0 0.0
2018-May-27 01:29N 49°09' W 123°00'0 0.0
2018-May-27 00:59N 49°09' W 123°00'0 0.0
2018-May-27 00:29N 49°09' W 123°00'0 0.0
2018-May-26 23:59N 49°09' W 123°00'0 0.0
2018-May-26 23:29N 49°09' W 123°00'0 0.0
2018-May-26 22:59N 49°09' W 123°00'0 0.0
2018-May-26 22:29N 49°09' W 123°00'0 0.0
2018-May-26 22:00N 49°09' W 123°00'0 0.1
2018-May-26 21:28N 49°09' W 123°00'1 3.0
2018-May-26 21:00N 49°09' W 123°02'2 4.7
2018-May-26 20:30N 49°07' W 123°05'2 4.2
2018-May-26 20:00N 49°06' W 123°08'2 4.4
2018-May-26 19:30N 49°07' W 123°11'2 4.6
2018-May-26 19:00N 49°08' W 123°14'2 4.3
2018-May-26 18:27N 49°06' W 123°17'2 4.3
2018-May-26 18:00N 49°05' W 123°19'3 5.1
2018-May-26 17:30N 49°03' W 123°17'2 3.2
2018-May-26 17:00N 49°02' W 123°15'4 7.6
2018-May-26 16:30N 48°59' W 123°11'4 8.7
2018-May-26 16:00N 48°56' W 123°06'5 8.5
2018-May-26 15:28N 48°53' W 123°01'4 8.1
2018-May-26 14:58N 48°51' W 122°56'4 8.2
2018-May-26 14:28N 48°48' W 122°52'4 7.9
2018-May-26 13:59N 48°46' W 122°47'4 7.9
2018-May-26 13:30N 48°43' W 122°44'4 7.4
2018-May-26 13:00N 48°39' W 122°43'4 7.3
2018-May-26 12:30N 48°36' W 122°45'4 7.2
2018-May-26 12:00N 48°32' W 122°44'4 8.3
2018-May-26 11:30N 48°28' W 122°44'12 8.6
2018-May-26 10:06N 48°16' W 122°47'1 8.2
2018-May-26 09:58N 48°15' W 122°48'3 6.6
2018-May-26 09:29N 48°12' W 122°47'4 6.5
2018-May-26 08:55N 48°09' W 122°43'4 5.8
2018-May-26 08:13N 48°06' W 122°39'2 7.7
2018-May-26 08:00N 48°05' W 122°39'3 7.0
2018-May-26 07:30N 48°01' W 122°37'4 7.3
2018-May-26 06:59N 47°58' W 122°34'4 7.7
2018-May-26 06:30N 47°56' W 122°30'8 8.4
2018-May-26 05:30N 47°48' W 122°26'4 8.3
2018-May-26 05:00N 47°44' W 122°26'4 8.4
2018-May-26 04:30N 47°40' W 122°27'4 8.3
2018-May-26 04:00N 47°37' W 122°23'1 2.2
2018-May-26 03:28N 47°35' W 122°22'0 0.3
2018-May-26 02:58N 47°36' W 122°22'1 1.5
2018-May-26 02:30N 47°36' W 122°23'3 6.2
2018-May-26 02:00N 47°38' W 122°27'4 7.5
2018-May-26 01:30N 47°42' W 122°28'4 8.4
2018-May-26 01:00N 47°46' W 122°27'4 8.4
2018-May-26 00:30N 47°50' W 122°28'4 7.9
2018-May-26 00:00N 47°54' W 122°30'7 7.0
2018-May-25 23:01N 47°58' W 122°38'0 5.4
2018-May-25 22:58N 47°58' W 122°38'1 3.0
2018-May-25 22:29N 47°58' W 122°36'611.9
2018-May-25 22:00N 47°54' W 122°29'612.1
2018-May-25 21:30N 47°49' W 122°27'4 7.2
2018-May-25 21:00N 47°52' W 122°29'1012.4
2018-May-25 20:10N 48°01' W 122°38'5311.0
2018-May-25 15:21N 48°14' W 123°55'410.7
2018-May-25 14:58N 48°14' W 124°01'510.7
2018-May-25 14:30N 48°15' W 124°08'510.2
2018-May-25 14:00N 48°17' W 124°15'510.1
2018-May-25 13:30N 48°20' W 124°22'510.1
2018-May-25 13:00N 48°22' W 124°28'5 9.6
2018-May-25 12:30N 48°24' W 124°35'5 9.2
2018-May-25 12:00N 48°26' W 124°41'4 8.7
2018-May-25 11:30N 48°26' W 124°48'711.0
2018-May-25 10:53N 48°20' W 124°53'511.8
2018-May-25 10:29N 48°16' W 124°57'7110.5
2018-May-25 03:43N 47°06' W 124°35'311.0
2018-May-25 03:28N 47°04' W 124°33'511.1
2018-May-25 03:00N 46°59' W 124°31'611.1
2018-May-25 02:30N 46°54' W 124°29'611.2
2018-May-25 01:57N 46°47' W 124°28'811.0
2018-May-25 01:14N 46°40' W 124°25'2 9.4
2018-May-25 01:00N 46°38' W 124°25'511.0
2018-May-25 00:30N 46°32' W 124°23'710.9
2018-May-24 23:52N 46°26' W 124°21'410.9
2018-May-24 23:30N 46°22' W 124°19'611.7
2018-May-24 23:00N 46°16' W 124°18'612.6
2018-May-24 22:30N 46°13' W 124°10'812.4
2018-May-24 21:51N 46°14' W 123°58'514.4
2018-May-24 21:30N 46°12' W 123°52'713.9
2018-May-24 21:00N 46°14' W 123°43'713.9
2018-May-24 20:30N 46°15' W 123°33'710.1
2018-May-24 19:50N 46°11' W 123°26'413.6
2018-May-24 19:30N 46°09' W 123°20'714.2
2018-May-24 19:00N 46°11' W 123°11'713.7
2018-May-24 18:30N 46°08' W 123°02'714.4
2018-May-24 18:00N 46°04' W 122°53'914.3
2018-May-24 17:22N 45°56' W 122°48'514.5
2018-May-24 17:00N 45°50' W 122°47'714.1
2018-May-24 16:30N 45°44' W 122°46'612.2
2018-May-24 16:00N 45°38' W 122°42'1 1.5
2018-May-24 15:28N 45°38' W 122°41'0 0.0
2018-May-24 14:58N 45°38' W 122°41'0 0.0
2018-May-24 14:28N 45°38' W 122°41'0 0.0
2018-May-24 13:58N 45°38' W 122°41'0 0.0
2018-May-24 13:28N 45°38' W 122°41'5 1.2
2018-May-24 09:00N 45°41' W 122°46'2 4.2
2018-May-24 08:31N 45°43' W 122°46'2 4.2
2018-May-24 08:00N 45°45' W 122°46'  
Track history (hours):
 
Tides and Currents Weather Stations Pressure Air Temp Water Temp Dewpoint Dewpoint Depression Visibility Wind Speed Wind Dir Waves Ship Positions

Island Scout

Owner: Island Tug and Barge, Seattle, WA. More information available from US FCC via Universal Licensing System and Coast Guard Vessel Documentation Center.

Last reported at 2018-Jun-03 07:44 UTC. Time now 2018-Jul-23 00:13 UTC.
Position N 47°34' W 122°22'.
Warning: this ship's position is 49 days out of date.

Type: Tug. MMSI: 367058210.

Date/timePositionNaut miles runAvg speedWind from/ knotsBaromVisibWave heightAir tempDewpointWater temp
2018-Jun-03 07:44N 47°34' W 122°22'0 0.0
2018-Jun-03 07:29N 47°34' W 122°22'0 0.0
2018-Jun-03 06:59N 47°34' W 122°22'0 0.0
2018-Jun-03 06:29N 47°34' W 122°22'0 0.0
2018-Jun-03 05:59N 47°34' W 122°22'0 0.0
2018-Jun-03 05:29N 47°34' W 122°22'0 0.0
2018-Jun-03 04:59N 47°34' W 122°22'0 0.0
2018-Jun-03 04:29N 47°34' W 122°22'0 0.0
2018-Jun-03 03:59N 47°34' W 122°22'0 0.0
2018-Jun-03 03:29N 47°34' W 122°22'0 0.0
2018-Jun-03 02:59N 47°34' W 122°22'1 1.8
2018-Jun-03 02:30N 47°34' W 122°21'0 0.8
2018-Jun-03 02:00N 47°33' W 122°21'0 0.2
2018-Jun-03 01:30N 47°33' W 122°21'2 4.8
2018-Jun-03 01:00N 47°35' W 122°22'1 2.9
2018-Jun-03 00:30N 47°36' W 122°24'4 8.5
2018-Jun-03 00:00N 47°40' W 122°28'4 8.4
2018-Jun-02 23:30N 47°44' W 122°27'4 8.1
2018-Jun-02 23:00N 47°48' W 122°28'4 8.3
2018-Jun-02 22:30N 47°52' W 122°29'4 8.1
2018-Jun-02 22:00N 47°56' W 122°31'4 7.9
2018-Jun-02 21:28N 47°58' W 122°36'4 7.4
2018-Jun-02 20:55N 48°02' W 122°39'22 6.3
2018-Jun-02 17:28N 48°23' W 122°46'510.9
2018-Jun-02 17:00N 48°28' W 122°45'510.7
2018-Jun-02 16:30N 48°33' W 122°45'5 9.8
2018-Jun-02 16:00N 48°38' W 122°44'5 8.9
2018-Jun-02 15:29N 48°43' W 122°45'4 8.3
2018-Jun-02 14:59N 48°46' W 122°50'4 8.4
2018-Jun-02 14:27N 48°48' W 122°56'4 8.2
2018-Jun-02 13:58N 48°51' W 123°01'4 7.6
2018-Jun-02 13:28N 48°53' W 123°05'4 8.5
2018-Jun-02 13:00N 48°55' W 123°10'4 7.6
2018-Jun-02 12:30N 48°57' W 123°15'4 7.5
2018-Jun-02 12:00N 48°60' W 123°19'4 7.5
2018-Jun-02 11:30N 49°04' W 123°21'3 5.5
2018-Jun-02 11:00N 49°06' W 123°19'4 7.7
2018-Jun-02 10:27N 49°08' W 123°13'4 8.3
2018-Jun-02 10:00N 49°07' W 123°07'4 8.4
2018-Jun-02 09:30N 49°09' W 123°02'1 1.5
2018-Jun-02 08:41N 49°09' W 123°00'0 0.2
2018-Jun-02 08:29N 49°09' W 123°00'0 0.0
2018-Jun-02 07:41N 49°09' W 123°00'0 0.0
2018-Jun-02 07:17N 49°09' W 123°00'0 0.0
2018-Jun-02 06:59N 49°09' W 123°00'0 0.0
2018-Jun-02 06:05N 49°09' W 123°00'0 0.0
2018-Jun-02 05:53N 49°09' W 123°00'0 0.0
2018-Jun-02 05:29N 49°09' W 123°00'0 0.0
2018-Jun-02 04:23N 49°09' W 123°00'0 0.0
2018-Jun-02 03:35N 49°09' W 123°00'0 0.0
2018-Jun-02 03:23N 49°09' W 123°00'0 0.0
2018-Jun-02 02:53N 49°09' W 123°00'0 0.0
2018-Jun-02 02:29N 49°09' W 123°00'0 0.0
2018-Jun-02 01:59N 49°09' W 123°00'0 0.0
2018-Jun-02 01:29N 49°09' W 123°00'0 0.0
2018-Jun-02 00:59N 49°09' W 123°00'0 0.0
2018-Jun-02 00:29N 49°09' W 123°00'0 0.0
2018-Jun-01 23:59N 49°09' W 123°00'0 0.0
2018-Jun-01 22:47N 49°09' W 123°00'0 0.0
2018-Jun-01 22:29N 49°09' W 123°00'0 0.0
2018-Jun-01 21:59N 49°09' W 123°00'0 0.0
2018-Jun-01 21:29N 49°09' W 123°00'0 0.0
2018-Jun-01 20:47N 49°09' W 123°00'0 0.0
2018-Jun-01 20:29N 49°09' W 123°00'0 0.0
2018-Jun-01 19:53N 49°09' W 123°00'0 0.0
2018-Jun-01 19:23N 49°09' W 123°00'0 0.0
2018-Jun-01 18:59N 49°09' W 123°00'0 0.0
2018-Jun-01 18:29N 49°09' W 123°00'0 0.0
2018-Jun-01 17:59N 49°09' W 123°00'0 0.0
2018-Jun-01 17:29N 49°09' W 123°00'0 0.0
2018-Jun-01 16:59N 49°09' W 123°00'0 0.0
2018-Jun-01 15:29N 49°09' W 123°00'0 0.0
2018-Jun-01 14:59N 49°09' W 123°00'0 0.0
2018-Jun-01 14:29N 49°09' W 123°00'0 0.0
2018-Jun-01 13:59N 49°09' W 123°00'0 0.0
2018-Jun-01 13:29N 49°09' W 123°00'0 0.0
2018-Jun-01 12:59N 49°09' W 123°00'0 0.0
2018-Jun-01 12:29N 49°09' W 123°00'0 0.0
2018-Jun-01 11:59N 49°09' W 123°00'0 0.0
2018-Jun-01 11:29N 49°09' W 123°00'0 0.0
2018-Jun-01 10:59N 49°09' W 123°00'0 0.0
2018-Jun-01 10:29N 49°09' W 123°00'0 0.0
2018-Jun-01 09:59N 49°09' W 123°00'0 0.0
2018-Jun-01 09:29N 49°09' W 123°00'0 0.0
2018-Jun-01 08:59N 49°09' W 123°00'0 0.0
2018-Jun-01 08:29N 49°09' W 123°00'0 0.0
2018-Jun-01 07:59N 49°09' W 123°00'0 0.0
2018-Jun-01 07:29N 49°09' W 123°00'0 0.0
2018-Jun-01 06:59N 49°09' W 123°00'0 0.0
2018-Jun-01 06:29N 49°09' W 123°00'0 0.0
2018-Jun-01 05:59N 49°09' W 123°00'0 0.0
2018-Jun-01 05:29N 49°09' W 123°00'0 0.0
2018-Jun-01 04:59N 49°09' W 123°00'0 0.0
2018-Jun-01 04:29N 49°09' W 123°00'0 0.0
2018-Jun-01 03:59N 49°09' W 123°00'0 0.0
2018-Jun-01 03:29N 49°09' W 123°00'0 0.0
2018-Jun-01 02:59N 49°09' W 123°00'0 0.0
2018-Jun-01 02:29N 49°09' W 123°00'0 0.0
2018-Jun-01 01:59N 49°09' W 123°00'0 0.0
2018-Jun-01 01:29N 49°09' W 123°00'0 0.0
2018-Jun-01 00:59N 49°09' W 123°00'0 0.0
2018-Jun-01 00:29N 49°09' W 123°00'0 0.0
2018-May-31 23:59N 49°09' W 123°00'0 0.0
2018-May-31 23:29N 49°09' W 123°00'0 0.0
2018-May-31 22:59N 49°09' W 123°00'0 0.0
2018-May-31 22:29N 49°09' W 123°00'0 0.0
2018-May-31 21:59N 49°09' W 123°00'0 0.0
2018-May-31 21:29N 49°09' W 123°00'0 0.0
2018-May-31 20:59N 49°09' W 123°00'0 0.0
2018-May-31 20:29N 49°09' W 123°00'0 0.0
2018-May-31 19:59N 49°09' W 123°00'0 0.0
2018-May-31 19:29N 49°09' W 123°00'0 0.0
2018-May-31 18:59N 49°09' W 123°00'0 0.0
2018-May-31 18:29N 49°09' W 123°00'0 0.0
2018-May-31 17:59N 49°09' W 123°00'0 0.0
2018-May-31 17:29N 49°09' W 123°00'0 0.0
2018-May-31 16:59N 49°09' W 123°00'0 0.0
2018-May-31 16:29N 49°09' W 123°00'0 0.0
2018-May-31 15:59N 49°09' W 123°00'0 0.0
2018-May-31 15:29N 49°09' W 123°00'0 0.0
2018-May-31 14:59N 49°09' W 123°00'0 0.0
2018-May-31 14:29N 49°09' W 123°00'0 0.0
2018-May-31 13:59N 49°09' W 123°00'0 0.0
2018-May-31 13:29N 49°09' W 123°00'0 0.0
2018-May-31 12:59N 49°09' W 123°00'0 0.0
2018-May-31 12:29N 49°09' W 123°00'0 0.0
2018-May-31 12:00N 49°09' W 123°00'0 0.0
2018-May-31 11:29N 49°09' W 123°00'0 0.0
2018-May-31 10:59N 49°09' W 123°00'0 0.0
2018-May-31 10:29N 49°09' W 123°00'0 0.0
2018-May-31 09:59N 49°09' W 123°00'0 0.0
2018-May-31 09:29N 49°09' W 123°00'0 0.0
2018-May-31 08:59N 49°09' W 123°00'0 0.0
2018-May-31 08:29N 49°09' W 123°00'0 0.0
2018-May-31 07:59N 49°09' W 123°00'0 0.0
2018-May-31 07:29N 49°09' W 123°00'0 0.0
2018-May-31 06:59N 49°09' W 123°00'0 0.0
2018-May-31 06:29N 49°09' W 123°00'0 0.0
2018-May-31 05:59N 49°09' W 123°00'0 0.0
2018-May-31 05:29N 49°09' W 123°00'0 0.0
2018-May-31 04:59N 49°09' W 123°00'0 0.0
2018-May-31 04:29N 49°09' W 123°00'0 0.0
2018-May-31 03:59N 49°09' W 123°00'0 0.0
2018-May-31 03:29N 49°09' W 123°00'0 0.0
2018-May-31 02:59N 49°09' W 123°00'0 0.0
2018-May-31 02:29N 49°09' W 123°00'0 0.0
2018-May-31 01:59N 49°09' W 123°00'0 0.0
2018-May-31 01:29N 49°09' W 123°00'0 0.0
2018-May-31 00:59N 49°09' W 123°00'0 0.0
2018-May-31 00:29N 49°09' W 123°00'0 0.0
2018-May-30 23:59N 49°09' W 123°00'0 0.0
2018-May-30 23:29N 49°09' W 123°00'0 0.0
2018-May-30 22:59N 49°09' W 123°00'0 0.0
2018-May-30 22:29N 49°09' W 123°00'0 0.0
2018-May-30 21:59N 49°09' W 123°00'0 0.0
2018-May-30 21:29N 49°09' W 123°00'0 0.0
2018-May-30 20:59N 49°09' W 123°00'0 0.0
2018-May-30 20:29N 49°09' W 123°00'0 0.0
2018-May-30 19:59N 49°09' W 123°00'0 0.0
2018-May-30 19:29N 49°09' W 123°00'0 0.0
2018-May-30 18:59N 49°09' W 123°00'0 0.0
2018-May-30 18:29N 49°09' W 123°00'0 0.0
2018-May-30 17:53N 49°09' W 123°00'0 0.0
2018-May-30 17:29N 49°09' W 123°00'0 0.0
2018-May-30 16:59N 49°09' W 123°00'0 0.0
2018-May-30 16:29N 49°09' W 123°00'0 0.0
2018-May-30 15:59N 49°09' W 123°00'0 0.0
2018-May-30 15:29N 49°09' W 123°00'0 0.0
2018-May-30 14:59N 49°09' W 123°00'0 0.0
2018-May-30 14:29N 49°09' W 123°00'0 0.0
2018-May-30 13:59N 49°09' W 123°00'0 0.0
2018-May-30 13:29N 49°09' W 123°00'0 0.0
2018-May-30 12:59N 49°09' W 123°00'0 0.0
2018-May-30 12:29N 49°09' W 123°00'0 0.0
2018-May-30 11:59N 49°09' W 123°00'0 0.0
2018-May-30 11:29N 49°09' W 123°00'0 0.0
2018-May-30 10:59N 49°09' W 123°00'0 0.0
2018-May-30 10:29N 49°09' W 123°00'0 0.0
2018-May-30 09:59N 49°09' W 123°00'0 0.0
2018-May-30 09:29N 49°09' W 123°00'0 0.0
2018-May-30 08:59N 49°09' W 123°00'0 0.0
2018-May-30 08:29N 49°09' W 123°00'0 0.0
2018-May-30 07:59N 49°09' W 123°00'0 0.0
2018-May-30 07:29N 49°09' W 123°00'0 0.0
2018-May-30 06:59N 49°09' W 123°00'0 0.0
2018-May-30 06:29N 49°09' W 123°00'0 0.0
2018-May-30 05:59N 49°09' W 123°00'0 0.0
2018-May-30 05:29N 49°09' W 123°00'0 0.0
2018-May-30 04:59N 49°09' W 123°00'0 0.0
2018-May-30 04:29N 49°09' W 123°00'0 0.0
2018-May-30 03:59N 49°09' W 123°00'0 0.0
2018-May-30 03:29N 49°09' W 123°00'0 0.0
2018-May-30 02:59N 49°09' W 123°00'0 0.0
2018-May-30 02:29N 49°09' W 123°00'0 0.0
2018-May-30 01:59N 49°09' W 123°00'0 0.0
2018-May-30 01:29N 49°09' W 123°00'0 0.0
2018-May-30 00:59N 49°09' W 123°00'0 0.0
2018-May-30 00:29N 49°09' W 123°00'0 0.0
2018-May-29 23:59N 49°09' W 123°00'0 0.0
2018-May-29 23:29N 49°09' W 123°00'0 0.0
2018-May-29 22:59N 49°09' W 123°00'0 0.0
2018-May-29 22:29N 49°09' W 123°00'0 0.0
2018-May-29 21:59N 49°09' W 123°00'0 0.0
2018-May-29 21:29N 49°09' W 123°00'0 0.1
2018-May-29 20:59N 49°09' W 123°00'0 0.0
2018-May-29 14:08N 49°09' W 123°00'0 0.0
2018-May-29 13:59N 49°09' W 123°00'0 0.0
2018-May-29 13:29N 49°09' W 123°00'0 0.0
2018-May-29 12:59N 49°09' W 123°00'0 0.0
2018-May-29 12:29N 49°09' W 123°00'0 0.0
2018-May-29 11:59N 49°09' W 123°00'0 0.0
2018-May-29 11:29N 49°09' W 123°00'0 0.0
2018-May-29 10:59N 49°09' W 123°00'0 0.0
2018-May-29 10:29N 49°09' W 123°00'0 0.0
2018-May-29 09:59N 49°09' W 123°00'0 0.0
2018-May-29 09:29N 49°09' W 123°00'0 0.0
2018-May-29 08:59N 49°09' W 123°00'0 0.0
2018-May-29 08:29N 49°09' W 123°00'0 0.0
2018-May-29 07:59N 49°09' W 123°00'0 0.0
2018-May-29 07:29N 49°09' W 123°00'0 0.0
2018-May-29 06:59N 49°09' W 123°00'0 0.0
2018-May-29 06:29N 49°09' W 123°00'0 0.0
2018-May-29 05:59N 49°09' W 123°00'0 0.0
2018-May-29 05:29N 49°09' W 123°00'0 0.0
2018-May-29 04:59N 49°09' W 123°00'0 0.0
2018-May-29 04:29N 49°09' W 123°00'0 0.0
2018-May-29 03:59N 49°09' W 123°00'0 0.0
2018-May-29 03:29N 49°09' W 123°00'0 0.0
2018-May-29 02:59N 49°09' W 123°00'0 0.0
2018-May-29 02:29N 49°09' W 123°00'0 0.0
2018-May-29 01:59N 49°09' W 123°00'0 0.0
2018-May-29 01:29N 49°09' W 123°00'0 0.0
2018-May-29 00:59N 49°09' W 123°00'0 0.0
2018-May-29 00:29N 49°09' W 123°00'0 0.0
2018-May-28 23:59N 49°09' W 123°00'0 0.0
2018-May-28 23:29N 49°09' W 123°00'0 0.0
2018-May-28 22:59N 49°09' W 123°00'0 0.0
2018-May-28 22:29N 49°09' W 123°00'0 0.0
2018-May-28 21:59N 49°09' W 123°00'0 0.0
2018-May-28 21:29N 49°09' W 123°00'0 0.0
2018-May-28 20:59N 49°09' W 123°00'0 0.0
2018-May-28 20:29N 49°09' W 123°00'0 0.0
2018-May-28 19:59N 49°09' W 123°00'0 0.0
2018-May-28 19:29N 49°09' W 123°00'0 0.0
2018-May-28 18:59N 49°09' W 123°00'0 0.0
2018-May-28 18:29N 49°09' W 123°00'0 0.0
2018-May-28 17:59N 49°09' W 123°00'0 0.0
2018-May-28 17:29N 49°09' W 123°00'0 0.0
2018-May-28 16:59N 49°09' W 123°00'0 0.0
2018-May-28 16:29N 49°09' W 123°00'0 0.0
2018-May-28 15:59N 49°09' W 123°00'0 0.0
2018-May-28 15:29N 49°09' W 123°00'0 0.0
2018-May-28 14:59N 49°09' W 123°00'0 0.0
2018-May-28 14:29N 49°09' W 123°00'0 0.0
2018-May-28 13:59N 49°09' W 123°00'0 0.0
2018-May-28 13:29N 49°09' W 123°00'0 0.0
2018-May-28 12:59N 49°09' W 123°00'0 0.0
2018-May-28 12:29N 49°09' W 123°00'0 0.0
2018-May-28 11:59N 49°09' W 123°00'0 0.0
2018-May-28 11:29N 49°09' W 123°00'0 0.0
2018-May-28 10:59N 49°09' W 123°00'0 0.0
2018-May-28 10:29N 49°09' W 123°00'0 0.0
2018-May-28 09:59N 49°09' W 123°00'0 0.0
2018-May-28 09:29N 49°09' W 123°00'0 0.0
2018-May-28 08:59N 49°09' W 123°00'0 0.0
2018-May-28 08:29N 49°09' W 123°00'0 0.0
2018-May-28 07:59N 49°09' W 123°00'0 0.0
2018-May-28 07:29N 49°09' W 123°00'0 0.0
2018-May-28 06:59N 49°09' W 123°00'0 0.0
2018-May-28 06:29N 49°09' W 123°00'0 0.0
2018-May-28 05:59N 49°09' W 123°00'0 0.0
2018-May-28 05:29N 49°09' W 123°00'0 0.0
2018-May-28 04:59N 49°09' W 123°00'0 0.0
2018-May-28 04:29N 49°09' W 123°00'0 0.0
2018-May-28 03:59N 49°09' W 123°00'0 0.0
2018-May-28 03:29N 49°09' W 123°00'0 0.0
2018-May-28 02:59N 49°09' W 123°00'0 0.0
2018-May-28 02:29N 49°09' W 123°00'0 0.0
2018-May-28 01:59N 49°09' W 123°00'0 0.0
2018-May-28 01:29N 49°09' W 123°00'0 0.0
2018-May-28 00:41N 49°09' W 123°00'0 0.0
2018-May-28 00:29N 49°09' W 123°00'0 0.0
2018-May-27 23:08N 49°09' W 123°00'0 0.0
2018-May-27 20:29N 49°09' W 123°00'0 0.0
2018-May-27 18:35N 49°09' W 123°00'0 0.0
2018-May-27 18:26N 49°09' W 123°00'0 0.0
2018-May-27 17:59N 49°09' W 123°00'0 0.0
2018-May-27 17:23N 49°09' W 123°00'0 0.0
2018-May-27 16:59N 49°09' W 123°00'0 0.0
2018-May-27 15:41N 49°09' W 123°00'0 0.0
2018-May-27 15:17N 49°09' W 123°00'0 0.0
2018-May-27 14:59N 49°09' W 123°00'0 0.0
2018-May-27 14:11N 49°09' W 123°00'0 0.0
2018-May-27 13:59N 49°09' W 123°00'0 0.0
2018-May-27 11:59N 49°09' W 123°00'0 0.0
2018-May-27 11:11N 49°09' W 123°00'0 0.0
2018-May-27 10:47N 49°09' W 123°00'0 0.0
2018-May-27 06:55N 49°09' W 123°00'0 0.0
2018-May-27 06:29N 49°09' W 123°00'0 0.0
2018-May-27 05:59N 49°09' W 123°00'0 0.0
2018-May-27 05:29N 49°09' W 123°00'0 0.0
2018-May-27 04:59N 49°09' W 123°00'0 0.0
2018-May-27 04:29N 49°09' W 123°00'0 0.0
2018-May-27 03:59N 49°09' W 123°00'0 0.0
2018-May-27 03:29N 49°09' W 123°00'0 0.0
2018-May-27 02:59N 49°09' W 123°00'0 0.0
2018-May-27 02:29N 49°09' W 123°00'0 0.0
2018-May-27 01:59N 49°09' W 123°00'0 0.0
2018-May-27 01:29N 49°09' W 123°00'0 0.0
2018-May-27 00:59N 49°09' W 123°00'0 0.0
2018-May-27 00:29N 49°09' W 123°00'0 0.0
2018-May-26 23:59N 49°09' W 123°00'0 0.0
2018-May-26 23:29N 49°09' W 123°00'0 0.0
2018-May-26 22:59N 49°09' W 123°00'0 0.0
2018-May-26 22:29N 49°09' W 123°00'0 0.0
2018-May-26 22:00N 49°09' W 123°00'0 0.1
2018-May-26 21:28N 49°09' W 123°00'1 3.0
2018-May-26 21:00N 49°09' W 123°02'2 4.7
2018-May-26 20:30N 49°07' W 123°05'2 4.2
2018-May-26 20:00N 49°06' W 123°08'2 4.4
2018-May-26 19:30N 49°07' W 123°11'2 4.6
2018-May-26 19:00N 49°08' W 123°14'2 4.3
2018-May-26 18:27N 49°06' W 123°17'2 4.3
2018-May-26 18:00N 49°05' W 123°19'3 5.1
2018-May-26 17:30N 49°03' W 123°17'2 3.2
2018-May-26 17:00N 49°02' W 123°15'4 7.6
2018-May-26 16:30N 48°59' W 123°11'4 8.7
2018-May-26 16:00N 48°56' W 123°06'5 8.5
2018-May-26 15:28N 48°53' W 123°01'4 8.1
2018-May-26 14:58N 48°51' W 122°56'4 8.2
2018-May-26 14:28N 48°48' W 122°52'4 7.9
2018-May-26 13:59N 48°46' W 122°47'4 7.9
2018-May-26 13:30N 48°43' W 122°44'4 7.4
2018-May-26 13:00N 48°39' W 122°43'4 7.3
2018-May-26 12:30N 48°36' W 122°45'4 7.2
2018-May-26 12:00N 48°32' W 122°44'4 8.3
2018-May-26 11:30N 48°28' W 122°44'12 8.6
2018-May-26 10:06N 48°16' W 122°47'1 8.2
2018-May-26 09:58N 48°15' W 122°48'3 6.6
2018-May-26 09:29N 48°12' W 122°47'4 6.5
2018-May-26 08:55N 48°09' W 122°43'4 5.8
2018-May-26 08:13N 48°06' W 122°39'2 7.7
2018-May-26 08:00N 48°05' W 122°39'3 7.0
2018-May-26 07:30N 48°01' W 122°37'4 7.3
2018-May-26 06:59N 47°58' W 122°34'4 7.7
2018-May-26 06:30N 47°56' W 122°30'8 8.4
2018-May-26 05:30N 47°48' W 122°26'4 8.3
2018-May-26 05:00N 47°44' W 122°26'4 8.4
2018-May-26 04:30N 47°40' W 122°27'4 8.3
2018-May-26 04:00N 47°37' W 122°23'1 2.2
2018-May-26 03:28N 47°35' W 122°22'0 0.3
2018-May-26 02:58N 47°36' W 122°22'1 1.5
2018-May-26 02:30N 47°36' W 122°23'3 6.2
2018-May-26 02:00N 47°38' W 122°27'4 7.5
2018-May-26 01:30N 47°42' W 122°28'4 8.4
2018-May-26 01:00N 47°46' W 122°27'4 8.4
2018-May-26 00:30N 47°50' W 122°28'4 7.9
2018-May-26 00:00N 47°54' W 122°30'7 7.0
2018-May-25 23:01N 47°58' W 122°38'0 5.4
2018-May-25 22:58N 47°58' W 122°38'1 3.0
2018-May-25 22:29N 47°58' W 122°36'611.9
2018-May-25 22:00N 47°54' W 122°29'612.1
2018-May-25 21:30N 47°49' W 122°27'4 7.2
2018-May-25 21:00N 47°52' W 122°29'1012.4
2018-May-25 20:10N 48°01' W 122°38'5311.0
2018-May-25 15:21N 48°14' W 123°55'410.7
2018-May-25 14:58N 48°14' W 124°01'510.7
2018-May-25 14:30N 48°15' W 124°08'510.2
2018-May-25 14:00N 48°17' W 124°15'510.1
2018-May-25 13:30N 48°20' W 124°22'510.1
2018-May-25 13:00N 48°22' W 124°28'5 9.6
2018-May-25 12:30N 48°24' W 124°35'5 9.2
2018-May-25 12:00N 48°26' W 124°41'4 8.7
2018-May-25 11:30N 48°26' W 124°48'711.0
2018-May-25 10:53N 48°20' W 124°53'511.8
2018-May-25 10:29N 48°16' W 124°57'7110.5
2018-May-25 03:43N 47°06' W 124°35'311.0
2018-May-25 03:28N 47°04' W 124°33'511.1
2018-May-25 03:00N 46°59' W 124°31'611.1
2018-May-25 02:30N 46°54' W 124°29'611.2
2018-May-25 01:57N 46°47' W 124°28'811.0
2018-May-25 01:14N 46°40' W 124°25'2 9.4
2018-May-25 01:00N 46°38' W 124°25'511.0
2018-May-25 00:30N 46°32' W 124°23'710.9
2018-May-24 23:52N 46°26' W 124°21'410.9
2018-May-24 23:30N 46°22' W 124°19'611.7
2018-May-24 23:00N 46°16' W 124°18'612.6
2018-May-24 22:30N 46°13' W 124°10'812.4
2018-May-24 21:51N 46°14' W 123°58'514.4
2018-May-24 21:30N 46°12' W 123°52'713.9
2018-May-24 21:00N 46°14' W 123°43'713.9
2018-May-24 20:30N 46°15' W 123°33'710.1
2018-May-24 19:50N 46°11' W 123°26'413.6
2018-May-24 19:30N 46°09' W 123°20'714.2
2018-May-24 19:00N 46°11' W 123°11'713.7
2018-May-24 18:30N 46°08' W 123°02'714.4
2018-May-24 18:00N 46°04' W 122°53'914.3
2018-May-24 17:22N 45°56' W 122°48'514.5
2018-May-24 17:00N 45°50' W 122°47'714.1
2018-May-24 16:30N 45°44' W 122°46'612.2
2018-May-24 16:00N 45°38' W 122°42'1 1.5
2018-May-24 15:28N 45°38' W 122°41'0 0.0
2018-May-24 14:58N 45°38' W 122°41'0 0.0
2018-May-24 14:28N 45°38' W 122°41'0 0.0
2018-May-24 13:58N 45°38' W 122°41'0 0.0
2018-May-24 13:28N 45°38' W 122°41'5 1.2
2018-May-24 09:00N 45°41' W 122°46'2 4.2
2018-May-24 08:31N 45°43' W 122°46'2 4.2
2018-May-24 08:00N 45°45' W 122°46'  

Dump ship's entire track history